Westville Center, New York
Current Conditions -  °F | °C
As of 9:37 AM on Tuesday 21 Oct 2014 (Local Time) from KMSS Reporting Station
Overcast Overcast  
Wind Chill:   Ceiling: 1000
Heat Index:   Visibility: 10mi
Dew Point:   Wind: 13mph
Humidity: 89%   Direction: 40°NE
Pressure: 29.97"   Gusts: NA
Location:  44.9516°N, 74.3293°W
Report Text: KMSS 211337Z AUTO 04011KT 10SM OVC010 08/06 A2997 RMK AO2 T00780061
Loading
Personal Weather Stations






























Interactive Weather Map
Tropical Storm Tracking
New forecast layout! Learn more

10-Day Weather Forecast

Advertisements
Track Severe Weather on mobile